Airfield :
LOGIN :

Register | Disclaimer

   EN    FR    IT 

 










Legend :    VFR   Marginal VFR   IFR   Intensive IFR   Very Intensive IFR
Visi :
Ceiling :
>= 8 km
>= 3000ft
5 to 8 km
1000 to 3000 ft
1500m to 5 km
500 to 1000 ft
800 to 1500m
200 to 500 ft
< 800m
< 200 ft
Symbols :   Thunderstorms  Fog  Heavy snow  Heavy precipitations  Wind > 20 kt
SIGMETs :     Misc.  Thunderstorms  Icing  Turbulence  Mountain Waves  Volcanic Ashes






- Airport Elevation : 416 ft
- IATA code : OVD


LEAS - Asturias

CURRENT METAR :
  • 101200Z AUTO 02004KT 330V110 9999 FEW045 SCT050 BKN070 20/13 Q1018

EXPIRED METARs :
  • 101130Z AUTO 03004KT 350V090 9999 FEW050 BKN070 OVC080 19/14 Q1018
  • 101100Z AUTO VRB02KT 9999 FEW017 SCT060 OVC076 19/16 Q1018
  • 101030Z AUTO 12003KT 070V170 9999 FEW060 BKN078 19/16 Q1018
  • 101000Z AUTO 00000KT 9999 BKN066 BKN079 18/16 Q1018
  • 100930Z AUTO VRB01KT 9999 OVC059 17/15 Q1018
  • 100900Z AUTO 00000KT 9999 BKN055 OVC070 16/15 Q1018

TAF TAF LEAS
Valid from the 10 at 09:00 until the 11 at 09:00 UTC


100800Z 1009/1109 VRB03KT 7000 BKN045 TX18/1011Z TN11/1103Z
TEMPO 1012/1022 3000 RA SHRA BKN014 SCT030TCU
TEMPO 1022/1109 3000 -RADZ BR BKN010



MET'MAP, your aeronautical weather chart ! - Copyright ORBIFLY December 2007 - Disclaimer

ORBIFLY MET'MAP TEAM :

Programming & Development : Alexandra Zaïnal
Concept & original design : Baudouin d'Aumeries
Assistance for programming : Marc-Olivier Méhu
Technical & hardware support : Manuel Goepfert

Contact : metmap@orbifly.com




SOURCES & CREDITS :

   NOAA